sensor_id;sensor_type;location;lat;lon;timestamp;pressure;altitude;pressure_sealevel;temperature;humidity
46778;BME280;32536;47.128;8.746;2022-10-13T00:00:46;92174.53;;;13.51;57.55
46778;BME280;32536;47.128;8.746;2022-10-13T00:03:14;92169.16;;;13.51;57.49
46778;BME280;32536;47.128;8.746;2022-10-13T00:05:43;92172.53;;;13.55;57.38
46778;BME280;32536;47.128;8.746;2022-10-13T00:08:13;92176.75;;;13.56;56.99
46778;BME280;32536;47.128;8.746;2022-10-13T00:10:43;92186.34;;;13.57;56.79
46778;BME280;32536;47.128;8.746;2022-10-13T00:13:11;92179.44;;;13.56;56.79
46778;BME280;32536;47.128;8.746;2022-10-13T00:15:40;92187.56;;;13.52;56.96
46778;BME280;32536;47.128;8.746;2022-10-13T00:18:08;92184.94;;;13.49;57.26
46778;BME280;32536;47.128;8.746;2022-10-13T00:20:40;92181.50;;;13.48;57.15
46778;BME280;32536;47.128;8.746;2022-10-13T00:23:07;92181.03;;;13.53;57.42
46778;BME280;32536;47.128;8.746;2022-10-13T00:25:34;92181.81;;;13.54;57.41
46778;BME280;32536;47.128;8.746;2022-10-13T00:28:06;92184.84;;;13.56;57.38
46778;BME280;32536;47.128;8.746;2022-10-13T00:30:34;92189.41;;;13.59;57.32
46778;BME280;32536;47.128;8.746;2022-10-13T00:33:02;92194.31;;;13.64;57.07
46778;BME280;32536;47.128;8.746;2022-10-13T00:35:30;92187.34;;;13.67;56.78
46778;BME280;32536;47.128;8.746;2022-10-13T00:37:57;92190.88;;;13.64;56.81
46778;BME280;32536;47.128;8.746;2022-10-13T00:40:24;92198.66;;;13.58;56.94
46778;BME280;32536;47.128;8.746;2022-10-13T00:42:50;92196.75;;;13.55;57.24
46778;BME280;32536;47.128;8.746;2022-10-13T00:45:29;92205.31;;;13.50;57.09
46778;BME280;32536;47.128;8.746;2022-10-13T00:47:57;92206.09;;;13.50;57.84
46778;BME280;32536;47.128;8.746;2022-10-13T00:50:34;92209.63;;;13.43;57.50
46778;BME280;32536;47.128;8.746;2022-10-13T00:53:05;92213.84;;;13.44;57.75
46778;BME280;32536;47.128;8.746;2022-10-13T00:55:35;92216.84;;;13.50;57.70
46778;BME280;32536;47.128;8.746;2022-10-13T00:58:07;92214.38;;;13.59;57.42
46778;BME280;32536;47.128;8.746;2022-10-13T01:00:37;92219.31;;;13.65;57.33
46778;BME280;32536;47.128;8.746;2022-10-13T01:03:04;92215.38;;;13.69;57.36
46778;BME280;32536;47.128;8.746;2022-10-13T01:05:30;92210.72;;;13.73;57.22
46778;BME280;32536;47.128;8.746;2022-10-13T01:07:58;92207.66;;;13.71;57.10
46778;BME280;32536;47.128;8.746;2022-10-13T01:13:19;92210.94;;;13.59;57.36
46778;BME280;32536;47.128;8.746;2022-10-13T01:21:42;92196.09;;;13.74;56.59
46778;BME280;32536;47.128;8.746;2022-10-13T01:24:46;92188.13;;;13.67;54.80
46778;BME280;32536;47.128;8.746;2022-10-13T01:30:11;92183.19;;;13.62;56.24
46778;BME280;32536;47.128;8.746;2022-10-13T01:33:05;92182.50;;;13.58;55.73
46778;BME280;32536;47.128;8.746;2022-10-13T01:38:53;92163.13;;;13.43;55.21
46778;BME280;32536;47.128;8.746;2022-10-13T01:44:20;92169.81;;;13.31;55.22
46778;BME280;32536;47.128;8.746;2022-10-13T01:46:53;92164.91;;;13.26;56.03
46778;BME280;32536;47.128;8.746;2022-10-13T01:49:25;92154.25;;;13.19;55.99
46778;BME280;32536;47.128;8.746;2022-10-13T01:51:55;92153.88;;;13.17;56.37
46778;BME280;32536;47.128;8.746;2022-10-13T01:54:31;92151.66;;;13.11;56.16
46778;BME280;32536;47.128;8.746;2022-10-13T01:56:58;92150.91;;;13.11;56.04
46778;BME280;32536;47.128;8.746;2022-10-13T01:59:26;92150.91;;;13.11;56.03
46778;BME280;32536;47.128;8.746;2022-10-13T02:02:27;92155.53;;;13.10;55.76
46778;BME280;32536;47.128;8.746;2022-10-13T02:08:09;92148.63;;;13.09;56.05
46778;BME280;32536;47.128;8.746;2022-10-13T02:13:46;92150.28;;;13.00;56.57
46778;BME280;32536;47.128;8.746;2022-10-13T02:16:14;92143.69;;;13.04;56.65
46778;BME280;32536;47.128;8.746;2022-10-13T02:18:42;92141.72;;;13.08;56.51
46778;BME280;32536;47.128;8.746;2022-10-13T02:21:09;92142.38;;;13.16;56.74
46778;BME280;32536;47.128;8.746;2022-10-13T02:23:36;92150.88;;;13.15;56.46
46778;BME280;32536;47.128;8.746;2022-10-13T02:26:03;92144.81;;;13.07;56.54
46778;BME280;32536;47.128;8.746;2022-10-13T02:28:30;92149.09;;;13.04;56.65
46778;BME280;32536;47.128;8.746;2022-10-13T02:30:57;92151.34;;;13.06;56.74
46778;BME280;32536;47.128;8.746;2022-10-13T02:33:24;92154.34;;;13.11;56.80
46778;BME280;32536;47.128;8.746;2022-10-13T02:35:51;92152.38;;;13.16;56.67
46778;BME280;32536;47.128;8.746;2022-10-13T02:38:18;92147.75;;;13.16;56.71
46778;BME280;32536;47.128;8.746;2022-10-13T02:40:45;92151.63;;;13.15;56.68
46778;BME280;32536;47.128;8.746;2022-10-13T02:43:12;92149.72;;;13.12;56.57
46778;BME280;32536;47.128;8.746;2022-10-13T02:45:38;92141.38;;;13.06;56.82
46778;BME280;32536;47.128;8.746;2022-10-13T02:48:05;92146.84;;;12.99;57.12
46778;BME280;32536;47.128;8.746;2022-10-13T02:50:32;92157.97;;;13.01;57.22
46778;BME280;32536;47.128;8.746;2022-10-13T02:52:59;92157.84;;;13.08;57.17
46778;BME280;32536;47.128;8.746;2022-10-13T02:55:26;92147.88;;;13.09;56.88
46778;BME280;32536;47.128;8.746;2022-10-13T02:57:53;92154.81;;;13.06;56.94
46778;BME280;32536;47.128;8.746;2022-10-13T03:00:19;92154.03;;;13.06;57.10
46778;BME280;32536;47.128;8.746;2022-10-13T03:02:46;92157.56;;;13.03;57.15
46778;BME280;32536;47.128;8.746;2022-10-13T03:05:13;92160.31;;;12.99;57.29
46778;BME280;32536;47.128;8.746;2022-10-13T03:07:40;92161.47;;;12.98;57.24
46778;BME280;32536;47.128;8.746;2022-10-13T03:10:07;92163.41;;;12.97;57.09
46778;BME280;32536;47.128;8.746;2022-10-13T03:12:34;92168.38;;;12.99;56.98
46778;BME280;32536;47.128;8.746;2022-10-13T03:15:01;92159.47;;;13.02;57.01
46778;BME280;32536;47.128;8.746;2022-10-13T03:17:27;92164.41;;;13.07;56.62
46778;BME280;32536;47.128;8.746;2022-10-13T03:19:54;92165.16;;;13.08;56.73
46778;BME280;32536;47.128;8.746;2022-10-13T03:22:21;92170.56;;;13.08;56.65
46778;BME280;32536;47.128;8.746;2022-10-13T03:24:48;92167.09;;;13.07;56.52
46778;BME280;32536;47.128;8.746;2022-10-13T03:27:14;92168.59;;;13.08;56.64
46778;BME280;32536;47.128;8.746;2022-10-13T03:29:41;92164.00;;;13.09;56.27
46778;BME280;32536;47.128;8.746;2022-10-13T03:32:08;92165.53;;;13.10;55.95
46778;BME280;32536;47.128;8.746;2022-10-13T03:34:35;92163.63;;;13.07;56.08
46778;BME280;32536;47.128;8.746;2022-10-13T03:37:02;92164.06;;;13.05;56.16
46778;BME280;32536;47.128;8.746;2022-10-13T03:39:29;92163.63;;;13.07;56.07
46778;BME280;32536;47.128;8.746;2022-10-13T03:41:55;92164.41;;;13.07;55.34
46778;BME280;32536;47.128;8.746;2022-10-13T03:44:22;92169.44;;;13.05;55.78
46778;BME280;32536;47.128;8.746;2022-10-13T03:46:49;92161.41;;;13.02;55.54
46778;BME280;32536;47.128;8.746;2022-10-13T03:49:16;92169.53;;;12.98;55.63
46778;BME280;32536;47.128;8.746;2022-10-13T03:51:44;92173.75;;;12.99;56.01
46778;BME280;32536;47.128;8.746;2022-10-13T03:54:11;92171.06;;;12.99;55.42
46778;BME280;32536;47.128;8.746;2022-10-13T03:56:39;92178.41;;;12.95;55.52
46778;BME280;32536;47.128;8.746;2022-10-13T03:59:07;92177.00;;;12.87;55.92
46778;BME280;32536;47.128;8.746;2022-10-13T04:01:37;92176.72;;;12.77;56.30
46778;BME280;32536;47.128;8.746;2022-10-13T04:04:04;92176.44;;;12.68;56.52
46778;BME280;32536;47.128;8.746;2022-10-13T04:06:32;92169.31;;;12.58;56.89
46778;BME280;32536;47.128;8.746;2022-10-13T04:08:59;92160.91;;;12.52;57.35
46778;BME280;32536;47.128;8.746;2022-10-13T04:11:26;92162.47;;;12.49;57.11
46778;BME280;32536;47.128;8.746;2022-10-13T04:13:54;92159.00;;;12.53;57.00
46778;BME280;32536;47.128;8.746;2022-10-13T04:16:24;92153.13;;;12.61;56.91
46778;BME280;32536;47.128;8.746;2022-10-13T04:18:54;92155.69;;;12.72;56.12
46778;BME280;32536;47.128;8.746;2022-10-13T04:21:29;92160.13;;;12.82;56.41
46778;BME280;32536;47.128;8.746;2022-10-13T04:23:58;92160.03;;;12.90;56.25
46778;BME280;32536;47.128;8.746;2022-10-13T04:26:28;92157.66;;;12.95;55.94
46778;BME280;32536;47.128;8.746;2022-10-13T04:28:56;92154.97;;;12.95;55.72
46778;BME280;32536;47.128;8.746;2022-10-13T04:31:24;92152.69;;;12.94;56.19
46778;BME280;32536;47.128;8.746;2022-10-13T04:33:53;92159.28;;;12.89;56.05
46778;BME280;32536;47.128;8.746;2022-10-13T04:36:20;92157.00;;;12.88;56.52
46778;BME280;32536;47.128;8.746;2022-10-13T04:38:47;92158.56;;;12.85;56.71
46778;BME280;32536;47.128;8.746;2022-10-13T04:41:16;92155.53;;;12.83;56.84
46778;BME280;32536;47.128;8.746;2022-10-13T04:43:49;92154.38;;;12.84;56.57
46778;BME280;32536;47.128;8.746;2022-10-13T04:46:22;92152.03;;;12.86;56.28
46778;BME280;32536;47.128;8.746;2022-10-13T04:48:51;92146.66;;;12.86;56.81
46778;BME280;32536;47.128;8.746;2022-10-13T04:51:21;92144.00;;;12.82;56.57
46778;BME280;32536;47.128;8.746;2022-10-13T04:53:58;92144.00;;;12.82;57.03
46778;BME280;32536;47.128;8.746;2022-10-13T04:56:26;92143.56;;;12.88;57.11
46778;BME280;32536;47.128;8.746;2022-10-13T04:58:54;92137.38;;;12.91;56.89
46778;BME280;32536;47.128;8.746;2022-10-13T05:01:22;92135.00;;;12.96;56.89
46778;BME280;32536;47.128;8.746;2022-10-13T05:03:54;92130.63;;;13.06;56.65
46778;BME280;32536;47.128;8.746;2022-10-13T05:06:27;92126.66;;;13.15;56.78
46778;BME280;32536;47.128;8.746;2022-10-13T05:08:56;92118.44;;;13.22;56.45
46778;BME280;32536;47.128;8.746;2022-10-13T05:11:24;92130.22;;;13.32;56.26
46778;BME280;32536;47.128;8.746;2022-10-13T05:13:52;92129.38;;;13.38;56.10
46778;BME280;32536;47.128;8.746;2022-10-13T05:16:20;92129.31;;;13.42;55.97
46778;BME280;32536;47.128;8.746;2022-10-13T05:18:49;92134.38;;;13.36;56.03
46778;BME280;32536;47.128;8.746;2022-10-13T05:21:19;92129.88;;;13.29;56.31
46778;BME280;32536;47.128;8.746;2022-10-13T05:23:51;92129.16;;;13.25;56.44
46778;BME280;32536;47.128;8.746;2022-10-13T05:26:25;92128.09;;;13.19;56.29
46778;BME280;32536;47.128;8.746;2022-10-13T05:28:55;92131.22;;;13.18;56.31
46778;BME280;32536;47.128;8.746;2022-10-13T05:31:26;92126.66;;;13.15;56.37
46778;BME280;32536;47.128;8.746;2022-10-13T05:33:55;92124.34;;;13.13;56.18
46778;BME280;32536;47.128;8.746;2022-10-13T05:36:33;92125.19;;;13.10;55.78
46778;BME280;32536;47.128;8.746;2022-10-13T05:39:03;92120.91;;;13.12;55.69
46778;BME280;32536;47.128;8.746;2022-10-13T05:41:31;92128.22;;;13.12;55.89
46778;BME280;32536;47.128;8.746;2022-10-13T05:44:00;92125.53;;;13.12;56.08
46778;BME280;32536;47.128;8.746;2022-10-13T05:46:30;92122.38;;;13.17;55.90
46778;BME280;32536;47.128;8.746;2022-10-13T05:48:57;92122.66;;;13.23;55.72
46778;BME280;32536;47.128;8.746;2022-10-13T05:51:26;92123.44;;;13.23;55.65
46778;BME280;32536;47.128;8.746;2022-10-13T05:54:08;92125.34;;;13.23;55.46
46778;BME280;32536;47.128;8.746;2022-10-13T05:56:43;92128.09;;;13.19;55.65
46778;BME280;32536;47.128;8.746;2022-10-13T05:59:19;92128.63;;;13.10;55.87
46778;BME280;32536;47.128;8.746;2022-10-13T06:01:47;92126.47;;;13.02;56.14
46778;BME280;32536;47.128;8.746;2022-10-13T06:04:24;92130.72;;;12.99;55.93
46778;BME280;32536;47.128;8.746;2022-10-13T06:06:56;92133.34;;;13.03;56.22
46778;BME280;32536;47.128;8.746;2022-10-13T06:09:23;92134.88;;;13.04;55.97
46778;BME280;32536;47.128;8.746;2022-10-13T06:11:51;92130.31;;;13.01;56.57
46778;BME280;32536;47.128;8.746;2022-10-13T06:14:18;92131.47;;;13.00;56.32
46778;BME280;32536;47.128;8.746;2022-10-13T06:16:45;92135.63;;;13.04;56.34
46778;BME280;32536;47.128;8.746;2022-10-13T06:19:11;92142.53;;;13.05;56.52
46778;BME280;32536;47.128;8.746;2022-10-13T06:21:38;92137.16;;;13.05;56.66
46778;BME280;32536;47.128;8.746;2022-10-13T06:24:05;92139.50;;;13.03;56.89
46778;BME280;32536;47.128;8.746;2022-10-13T06:26:32;92141.44;;;13.03;56.90
46778;BME280;32536;47.128;8.746;2022-10-13T06:28:59;92140.53;;;13.09;56.83
46778;BME280;32536;47.128;8.746;2022-10-13T06:31:26;92140.84;;;13.15;56.43
46778;BME280;32536;47.128;8.746;2022-10-13T06:33:53;92134.59;;;13.22;56.79
46778;BME280;32536;47.128;8.746;2022-10-13T06:36:20;92133.69;;;13.32;56.61
46778;BME280;32536;47.128;8.746;2022-10-13T06:38:47;92134.00;;;13.38;56.20
46778;BME280;32536;47.128;8.746;2022-10-13T06:41:14;92133.19;;;13.41;56.17
46778;BME280;32536;47.128;8.746;2022-10-13T06:43:41;92140.09;;;13.42;55.93
46778;BME280;32536;47.128;8.746;2022-10-13T06:46:08;92137.81;;;13.40;55.88
46778;BME280;32536;47.128;8.746;2022-10-13T06:48:36;92135.88;;;13.41;55.78
46778;BME280;32536;47.128;8.746;2022-10-13T06:51:08;92139.38;;;13.38;55.64
46778;BME280;32536;47.128;8.746;2022-10-13T06:53:36;92137.06;;;13.36;55.59
46778;BME280;32536;47.128;8.746;2022-10-13T06:56:05;92136.38;;;13.32;55.65
46778;BME280;32536;47.128;8.746;2022-10-13T06:58:34;92146.03;;;13.29;55.33
46778;BME280;32536;47.128;8.746;2022-10-13T07:01:02;92137.22;;;13.25;55.75
46778;BME280;32536;47.128;8.746;2022-10-13T07:03:29;92138.41;;;13.24;55.76
46778;BME280;32536;47.128;8.746;2022-10-13T07:06:04;92136.47;;;13.25;56.27
46778;BME280;32536;47.128;8.746;2022-10-13T07:08:32;92124.81;;;13.32;56.04
46778;BME280;32536;47.128;8.746;2022-10-13T07:11:05;92116.38;;;13.33;56.29
46778;BME280;32536;47.128;8.746;2022-10-13T07:13:33;92129.38;;;13.38;56.22
46778;BME280;32536;47.128;8.746;2022-10-13T07:16:03;92131.59;;;13.43;56.43
46778;BME280;32536;47.128;8.746;2022-10-13T07:18:31;92126.78;;;13.55;57.15
46778;BME280;32536;47.128;8.746;2022-10-13T07:20:58;92130.28;;;13.75;57.72
46778;BME280;32536;47.128;8.746;2022-10-13T07:23:27;92124.38;;;14.04;57.81
46778;BME280;32536;47.128;8.746;2022-10-13T07:25:54;92124.09;;;14.39;57.62
46778;BME280;32536;47.128;8.746;2022-10-13T07:28:23;92125.78;;;14.69;56.94
46778;BME280;32536;47.128;8.746;2022-10-13T07:30:51;92125.00;;;14.89;56.23
46778;BME280;32536;47.128;8.746;2022-10-13T07:33:18;92117.50;;;14.97;55.94
46778;BME280;32536;47.128;8.746;2022-10-13T07:35:45;92116.41;;;14.94;55.81
46778;BME280;32536;47.128;8.746;2022-10-13T07:38:12;92113.88;;;14.87;55.89
46778;BME280;32536;47.128;8.746;2022-10-13T07:40:39;92106.38;;;14.78;56.20
46778;BME280;32536;47.128;8.746;2022-10-13T07:43:05;92107.63;;;14.73;56.42
46778;BME280;32536;47.128;8.746;2022-10-13T07:45:53;92101.81;;;14.75;56.66
46778;BME280;32536;47.128;8.746;2022-10-13T07:48:20;92100.56;;;14.80;56.75
46778;BME280;32536;47.128;8.746;2022-10-13T07:50:46;92094.38;;;14.79;56.68
46778;BME280;32536;47.128;8.746;2022-10-13T07:53:13;92084.88;;;14.75;56.81
46778;BME280;32536;47.128;8.746;2022-10-13T07:55:40;92098.91;;;14.66;56.75
46778;BME280;32536;47.128;8.746;2022-10-13T07:58:07;92095.88;;;14.64;56.84
46778;BME280;32536;47.128;8.746;2022-10-13T08:00:34;92088.53;;;14.64;56.45
46778;BME280;32536;47.128;8.746;2022-10-13T08:03:01;92091.94;;;14.68;56.47
46778;BME280;32536;47.128;8.746;2022-10-13T08:05:28;92091.09;;;14.71;56.60
46778;BME280;32536;47.128;8.746;2022-10-13T08:07:55;92091.38;;;14.77;56.50
46778;BME280;32536;47.128;8.746;2022-10-13T08:10:21;92093.13;;;14.84;56.70
46778;BME280;32536;47.128;8.746;2022-10-13T08:12:48;92093.31;;;14.93;56.58
46778;BME280;32536;47.128;8.746;2022-10-13T08:15:15;92089.28;;;15.01;56.36
46778;BME280;32536;47.128;8.746;2022-10-13T08:17:42;92096.00;;;15.10;56.56
46778;BME280;32536;47.128;8.746;2022-10-13T08:20:09;92091.22;;;15.17;56.43
46778;BME280;32536;47.128;8.746;2022-10-13T08:22:36;92088.75;;;15.23;56.12
46778;BME280;32536;47.128;8.746;2022-10-13T08:25:03;92087.91;;;15.26;56.34
46778;BME280;32536;47.128;8.746;2022-10-13T08:27:32;92082.88;;;15.28;56.30
46778;BME280;32536;47.128;8.746;2022-10-13T08:29:59;92090.97;;;15.28;56.39
46778;BME280;32536;47.128;8.746;2022-10-13T08:32:25;92085.13;;;15.30;56.33
46778;BME280;32536;47.128;8.746;2022-10-13T08:34:52;92080.84;;;15.32;56.73
46778;BME280;32536;47.128;8.746;2022-10-13T08:37:19;92083.34;;;15.40;56.79
46778;BME280;32536;47.128;8.746;2022-10-13T08:39:46;92076.00;;;15.40;56.86
46778;BME280;32536;47.128;8.746;2022-10-13T08:42:16;92073.00;;;15.38;56.65
46778;BME280;32536;47.128;8.746;2022-10-13T08:44:56;92073.75;;;15.39;57.07
46778;BME280;32536;47.128;8.746;2022-10-13T08:50:17;92071.94;;;15.48;56.95
46778;BME280;32536;47.128;8.746;2022-10-13T08:52:52;92083.31;;;15.56;56.84
46778;BME280;32536;47.128;8.746;2022-10-13T08:58:01;92083.66;;;15.75;56.99
46778;BME280;32536;47.128;8.746;2022-10-13T09:00:40;92075.75;;;15.80;56.83
46778;BME280;32536;47.128;8.746;2022-10-13T09:03:24;92083.13;;;15.80;56.87
46778;BME280;32536;47.128;8.746;2022-10-13T09:06:14;92073.66;;;15.88;56.77
46778;BME280;32536;47.128;8.746;2022-10-13T09:08:58;92077.03;;;15.92;57.00
46778;BME280;32536;47.128;8.746;2022-10-13T09:11:30;92071.97;;;15.94;57.03
46778;BME280;32536;47.128;8.746;2022-10-13T09:14:01;92068.81;;;15.96;57.23
46778;BME280;32536;47.128;8.746;2022-10-13T09:16:41;92075.66;;;16.00;56.83
46778;BME280;32536;47.128;8.746;2022-10-13T09:21:49;92080.53;;;16.06;56.93
46778;BME280;32536;47.128;8.746;2022-10-13T09:24:19;92078.81;;;16.12;57.31
46778;BME280;32536;47.128;8.746;2022-10-13T09:26:49;92083.38;;;16.15;56.92
46778;BME280;32536;47.128;8.746;2022-10-13T09:29:27;92084.47;;;16.17;57.13
46778;BME280;32536;47.128;8.746;2022-10-13T09:32:12;92089.44;;;16.19;56.92
46778;BME280;32536;47.128;8.746;2022-10-13T09:34:41;92087.06;;;16.21;57.02
46778;BME280;32536;47.128;8.746;2022-10-13T09:37:23;92077.88;;;16.19;56.96
46778;BME280;32536;47.128;8.746;2022-10-13T09:40:11;92088.59;;;16.22;57.13
46778;BME280;32536;47.128;8.746;2022-10-13T09:42:50;92094.22;;;16.28;56.89
46778;BME280;32536;47.128;8.746;2022-10-13T09:45:19;92086.66;;;16.36;57.07
46778;BME280;32536;47.128;8.746;2022-10-13T09:47:56;92080.38;;;16.39;56.58
46778;BME280;32536;47.128;8.746;2022-10-13T09:50:28;92087.97;;;16.44;56.87
46778;BME280;32536;47.128;8.746;2022-10-13T09:53:33;92087.13;;;16.47;56.57
46778;BME280;32536;47.128;8.746;2022-10-13T10:01:42;92092.41;;;16.51;56.77
46778;BME280;32536;47.128;8.746;2022-10-13T10:04:13;92092.19;;;16.45;57.06
46778;BME280;32536;47.128;8.746;2022-10-13T10:06:44;92093.16;;;16.51;57.00
46778;BME280;32536;47.128;8.746;2022-10-13T10:09:34;92090.81;;;16.53;57.27
46778;BME280;32536;47.128;8.746;2022-10-13T10:12:04;92088.00;;;16.57;57.13
46778;BME280;32536;47.128;8.746;2022-10-13T10:14:38;92097.19;;;16.59;57.11
46778;BME280;32536;47.128;8.746;2022-10-13T10:22:54;92091.47;;;16.70;57.09
46778;BME280;32536;47.128;8.746;2022-10-13T10:46:04;92093.34;;;16.99;55.77
46778;BME280;32536;47.128;8.746;2022-10-13T10:48:44;92099.72;;;17.05;56.70
46778;BME280;32536;47.128;8.746;2022-10-13T10:51:12;92090.72;;;17.08;56.69
46778;BME280;32536;47.128;8.746;2022-10-13T10:53:57;92085.97;;;17.12;56.26
46778;BME280;32536;47.128;8.746;2022-10-13T10:56:34;92084.25;;;17.19;56.48
46778;BME280;32536;47.128;8.746;2022-10-13T10:59:33;92083.25;;;17.25;55.78
46778;BME280;32536;47.128;8.746;2022-10-13T11:15:09;92053.66;;;17.66;55.95
46778;BME280;32536;47.128;8.746;2022-10-13T11:17:49;92052.56;;;17.76;56.31
46778;BME280;32536;47.128;8.746;2022-10-13T11:25:45;92045.19;;;17.77;56.04
46778;BME280;32536;47.128;8.746;2022-10-13T11:44:58;92037.03;;;17.55;56.94
46778;BME280;32536;47.128;8.746;2022-10-13T11:56:43;92024.72;;;17.41;56.75
46778;BME280;32536;47.128;8.746;2022-10-13T12:01:57;92018.84;;;17.55;56.87
46778;BME280;32536;47.128;8.746;2022-10-13T12:04:37;92017.25;;;17.67;56.83
46778;BME280;32536;47.128;8.746;2022-10-13T12:07:07;92005.88;;;17.72;56.78
46778;BME280;32536;47.128;8.746;2022-10-13T12:09:47;91997.63;;;17.76;57.01
46778;BME280;32536;47.128;8.746;2022-10-13T12:12:16;92001.94;;;17.73;57.00
46778;BME280;32536;47.128;8.746;2022-10-13T12:14:46;91994.91;;;17.76;56.89
46778;BME280;32536;47.128;8.746;2022-10-13T12:19:53;91978.91;;;17.91;56.91
46778;BME280;32536;47.128;8.746;2022-10-13T12:22:22;91980.41;;;17.92;56.64
46778;BME280;32536;47.128;8.746;2022-10-13T12:24:59;91974.78;;;17.86;56.75
46778;BME280;32536;47.128;8.746;2022-10-13T12:27:29;91963.22;;;17.86;56.91
46778;BME280;32536;47.128;8.746;2022-10-13T12:30:00;91976.75;;;17.86;56.81
46778;BME280;32536;47.128;8.746;2022-10-13T12:32:30;91968.19;;;17.87;56.90
46778;BME280;32536;47.128;8.746;2022-10-13T12:35:29;91968.06;;;17.91;56.73
46778;BME280;32536;47.128;8.746;2022-10-13T12:38:00;91966.66;;;17.86;56.76
46778;BME280;32536;47.128;8.746;2022-10-13T12:40:30;91964.41;;;17.85;56.99
46778;BME280;32536;47.128;8.746;2022-10-13T12:42:57;91957.78;;;17.86;56.64
46778;BME280;32536;47.128;8.746;2022-10-13T12:45:27;91955.94;;;17.83;57.00
46778;BME280;32536;47.128;8.746;2022-10-13T12:47:57;91952.91;;;17.81;56.96
46778;BME280;32536;47.128;8.746;2022-10-13T12:53:08;91950.03;;;17.75;57.17
46778;BME280;32536;47.128;8.746;2022-10-13T12:55:58;91952.09;;;17.71;57.22
46778;BME280;32536;47.128;8.746;2022-10-13T12:58:31;91945.63;;;17.68;57.22
46778;BME280;32536;47.128;8.746;2022-10-13T13:01:16;91951.50;;;17.67;57.35
46778;BME280;32536;47.128;8.746;2022-10-13T13:04:01;91950.28;;;17.68;57.32
46778;BME280;32536;47.128;8.746;2022-10-13T13:07:00;91949.41;;;17.71;57.18
46778;BME280;32536;47.128;8.746;2022-10-13T13:09:35;91946.44;;;17.78;57.04
46778;BME280;32536;47.128;8.746;2022-10-13T13:12:20;91944.97;;;17.86;56.98
46778;BME280;32536;47.128;8.746;2022-10-13T13:14:51;91950.53;;;17.83;57.03
46778;BME280;32536;47.128;8.746;2022-10-13T13:17:25;91942.84;;;17.81;57.32
46778;BME280;32536;47.128;8.746;2022-10-13T13:19:54;91940.88;;;17.82;57.04
46778;BME280;32536;47.128;8.746;2022-10-13T13:22:23;91938.94;;;17.82;57.21
46778;BME280;32536;47.128;8.746;2022-10-13T13:24:50;91938.06;;;17.85;57.28
46778;BME280;32536;47.128;8.746;2022-10-13T13:27:27;91938.63;;;17.80;56.87
46778;BME280;32536;47.128;8.746;2022-10-13T13:29:59;91933.69;;;17.88;57.04
46778;BME280;32536;47.128;8.746;2022-10-13T13:32:26;91934.53;;;17.98;56.62
46778;BME280;32536;47.128;8.746;2022-10-13T13:34:55;91941.94;;;18.06;55.73
46778;BME280;32536;47.128;8.746;2022-10-13T13:40:03;91933.38;;;18.39;55.41
46778;BME280;32536;47.128;8.746;2022-10-13T13:42:31;91930.53;;;18.52;55.41
46778;BME280;32536;47.128;8.746;2022-10-13T13:44:58;91939.31;;;18.66;55.33
46778;BME280;32536;47.128;8.746;2022-10-13T13:47:27;91934.34;;;18.73;53.98
46778;BME280;32536;47.128;8.746;2022-10-13T13:49:55;91934.38;;;18.83;54.22
46778;BME280;32536;47.128;8.746;2022-10-13T13:52:24;91941.19;;;18.87;54.46
46778;BME280;32536;47.128;8.746;2022-10-13T13:54:51;91937.91;;;18.93;54.14
46778;BME280;32536;47.128;8.746;2022-10-13T13:57:20;91938.78;;;18.90;53.52
46778;BME280;32536;47.128;8.746;2022-10-13T13:59:47;91933.34;;;18.90;53.84
46778;BME280;32536;47.128;8.746;2022-10-13T14:02:17;91922.81;;;18.92;54.00
46778;BME280;32536;47.128;8.746;2022-10-13T14:04:45;91929.94;;;18.98;53.95
46778;BME280;32536;47.128;8.746;2022-10-13T14:07:13;91922.84;;;19.01;54.00
46778;BME280;32536;47.128;8.746;2022-10-13T14:09:41;91927.97;;;19.08;54.20
46778;BME280;32536;47.128;8.746;2022-10-13T14:12:08;91928.25;;;19.10;53.59
46778;BME280;32536;47.128;8.746;2022-10-13T14:14:35;91924.66;;;19.13;54.03
46778;BME280;32536;47.128;8.746;2022-10-13T14:17:03;91910.75;;;19.11;53.39
46778;BME280;32536;47.128;8.746;2022-10-13T14:19:31;91907.78;;;19.09;53.12
46778;BME280;32536;47.128;8.746;2022-10-13T14:21:58;91915.59;;;19.07;53.40
46778;BME280;32536;47.128;8.746;2022-10-13T14:24:27;91905.06;;;19.09;53.44
46778;BME280;32536;47.128;8.746;2022-10-13T14:26:54;91906.84;;;19.12;53.97
46778;BME280;32536;47.128;8.746;2022-10-13T14:29:21;91903.69;;;19.14;53.59
46778;BME280;32536;47.128;8.746;2022-10-13T14:31:48;91902.47;;;19.15;54.01
46778;BME280;32536;47.128;8.746;2022-10-13T14:34:14;91897.81;;;19.15;53.96
46778;BME280;32536;47.128;8.746;2022-10-13T14:36:41;91914.53;;;19.14;53.71
46778;BME280;32536;47.128;8.746;2022-10-13T14:39:08;91917.41;;;19.10;52.88
46778;BME280;32536;47.128;8.746;2022-10-13T14:41:35;91922.22;;;19.06;53.25
46778;BME280;32536;47.128;8.746;2022-10-13T14:44:03;91927.63;;;18.97;53.00
46778;BME280;32536;47.128;8.746;2022-10-13T14:46:30;91922.06;;;18.91;53.11
46778;BME280;32536;47.128;8.746;2022-10-13T14:48:57;91922.66;;;18.86;53.07
46778;BME280;32536;47.128;8.746;2022-10-13T14:51:25;91930.94;;;18.82;52.87
46778;BME280;32536;47.128;8.746;2022-10-13T14:53:51;91931.34;;;18.81;53.14
46778;BME280;32536;47.128;8.746;2022-10-13T14:56:19;91931.66;;;18.73;52.80
46778;BME280;32536;47.128;8.746;2022-10-13T14:58:48;91926.81;;;18.68;52.76
46778;BME280;32536;47.128;8.746;2022-10-13T15:01:17;91931.19;;;18.66;53.19
46778;BME280;32536;47.128;8.746;2022-10-13T15:03:44;91915.34;;;18.64;53.11
46778;BME280;32536;47.128;8.746;2022-10-13T15:06:17;91916.41;;;18.67;52.86
46778;BME280;32536;47.128;8.746;2022-10-13T15:08:48;91903.16;;;18.69;53.39
46778;BME280;32536;47.128;8.746;2022-10-13T15:11:16;91907.34;;;18.70;53.21
46778;BME280;32536;47.128;8.746;2022-10-13T15:13:44;91898.94;;;18.68;53.07
46778;BME280;32536;47.128;8.746;2022-10-13T15:16:20;91890.94;;;18.64;52.48